Terminal Aerodrome Forecast
Issued by NWS Cleveland, OH

Home | Current Version | Previous Version | Text Only | Print | Product List | Glossary Off
Versions: 1 2 3 4 5 6 7 8 9 10 11 12 13 14 15 16 17 18 19

858
FTUS41 KCLE 031730
TAFYNG
TAF
KYNG 031730Z 0318/0418 21015G25KT P6SM VCSH SCT022 BKN035
      TEMPO 0318/0321 BKN022
     FM040100 25010KT P6SM OVC035
     FM040700 25008KT P6SM VCSH OVC022=

USA.gov is the U.S. government's official web portal to all federal, state and local government web resources and services.